Hauptseite
METAR-TAF:

METAR-TAF

Flughäfen :

St Athan, Wales

Breite: 51-24N, Länge: 003-26W, Höhe: 50 m

Beobachtung

Neuester Wetterbericht von vor 41 Minuten, um 12:50 UTC
Wind 15 kt aus Nordost
Temperatur 12°C
Luftfeuchtigkeit 82%
Luftdruck 1012 hPa
Sichtweite 10 km oder mehr
Leicht bewölkt in der Höhe von 1200 ft
Durchbrochene Bewölkung in der Höhe von 2000 ft

METAR: EGDX 151250Z 05015KT 9999 FEW012 BKN020 12/09 Q1012 WHT

Zeit: 14:31 (13:31 UTC)

Prognose

Neuester Wetterbericht von vor 3 Stunden und 14 Minuten, um 10:17 UTC
Gültige Prognose vom 15 um 12 UTC bis 15 um 18 UTC
Wind 10 kt aus Nordost
Sichtweite 10 km oder mehr
Durchbrochene Bewölkung in der Höhe von 2500 ft
Wahrscheinlichkeit 30% :
Zeitweise
vom 15 um 12 UTC bis 15 um 18 UTC
Sichtweite: 6000 m
Durchbrochene Bewölkung in der Höhe von 1200 ft
Leichtregen, Sprühregen

TAF: EGDX 151017Z 1512/1518 05010KT 9999 BKN025 PROB30 TEMPO 1512/1518 6000 -RADZ BKN012

Wetterbeobachtungen und Prognosen von mehr als 4000 Flughäfen (METAR und TAF Bericht).

Die verfügbaren Stationen werden durch gelbe und rote Markierungen auf der Karte dargestellt.

Führen Sie die Maus auf sie, um den Namen der Station zu sehen.

Darauf klicken, um die Beobachtung von Wetterbeobachtungen und Prognosen zu sehen.

Um die Karte zu ändern : klicken Sie auf den grünen Tasten mit einem schwarzen Kreuz Zum Vergrößern, auf den grünen Button mit einem Gedankenstrich zu verkleinern, oder auf die grünen Pfeile für benachbarte Karten.


METAR-TAF: